Time;durP1;ratioP1;P1;durP2;ratioP2;P2;SDS_P1;SDS_P2;PMS_P1;PMS_P2;Temp;Humidity;BMP_temperature;BMP_pressure;BME280_temperature;BME280_humidity;BME280_pressure;Samples;Min_cycle;Max_cycle;Signal;HPM_P1;HPM_P2
2023/09/23 00:03:44;;;;;;;2.53;2.00;;;;;;;21.88;51.32;92827.50;6084006;23;20031;-93
2023/09/23 00:11:47;;;;;;;;;;;;;;;;;;;;;
2023/09/23 00:14:40;;;;;;;2.72;2.00;;;;;;;21.89;51.19;92818.69;5968746;23;20042;-95
2023/09/23 00:17:55;;;;;;;2.05;1.63;;;;;;;21.92;51.02;92813.38;6031266;23;20027;-93
2023/09/23 00:21:30;;;;;;;2.15;1.83;;;;;;;21.89;51.24;92796.69;6000230;23;20035;-93
2023/09/23 00:27:42;;;;;;;;;;;;;;;;;;;;;
2023/09/23 00:31:01;;;;;;;2.10;1.90;;;;;;;21.87;51.16;92817.78;5888243;23;20043;-92
2023/09/23 00:33:55;;;;;;;2.50;1.60;;;;;;;21.87;51.18;92810.25;5975619;23;20034;-92
2023/09/23 00:43:48;;;;;;;;;;;;;;;;;;;;;
2023/09/23 00:47:07;;;;;;;;;;;;;;;;;;;;;
2023/09/23 00:57:42;;;;;;;;;;;;;;;;;;;;;
2023/09/23 01:01:26;;;;;;;;;;;;;;;;;;;;;
2023/09/23 01:04:04;;;;;;;;;;;;;;;;;;;;;
2023/09/23 01:12:43;;;;;;;3.08;1.83;;;;;;;21.84;51.08;92799.63;6035459;23;20589;-94
2023/09/23 01:24:45;;;;;;;;;;;;;;;;;;;;;
2023/09/23 01:28:05;;;;;;;;;;;;;;;;;;;;;
2023/09/23 01:31:23;;;;;;;;;;;;;;;;;;;;;
2023/09/23 01:34:27;;;;;;;;;;;;;;;;;;;;;
2023/09/23 01:37:30;;;;;;;1.80;1.40;;;;;;;21.83;51.00;92834.66;5916955;24;20051;-94
2023/09/23 01:43:49;;;;;;;;;;;;;;;;;;;;;
2023/09/23 01:46:43;;;;;;;;;;;;;;;;;;;;;
2023/09/23 01:49:49;;;;;;;2.28;1.42;;;;;;;21.81;51.23;92878.50;5935045;23;20055;-94
2023/09/23 01:52:40;;;;;;;;;;;;;;;;;;;;;
2023/09/23 01:55:54;;;;;;;1.63;1.48;;;;;;;21.83;51.30;92883.44;5867785;23;20046;-93
2023/09/23 02:13:14;;;;;;;5.85;1.75;;;;;;;21.82;51.40;92871.72;6111929;23;20036;-94
2023/09/23 02:16:22;;;;;;;1.88;1.60;;;;;;;21.83;51.26;92867.69;6032718;23;20026;-93
2023/09/23 02:19:44;;;;;;;;;;;;;;;;;;;;;
2023/09/23 02:23:41;;;;;;;;;;;;;;;;;;;;;
2023/09/23 02:26:40;;;;;;;1.73;1.20;;;;;;;21.82;51.04;92882.72;5946600;23;20355;-93
2023/09/23 02:29:56;;;;;;;2.22;1.52;;;;;;;21.82;51.04;92890.97;5987579;23;20075;-94
2023/09/23 02:32:49;;;;;;;1.65;1.30;;;;;;;21.84;50.89;92895.94;5980303;23;20032;-94
2023/09/23 02:38:49;;;;;;;;;;;;;;;;;;;;;
2023/09/23 02:42:04;;;;;;;;;;;;;;;;;;;;;
2023/09/23 02:50:14;;;;;;;;;;;;;;;;;;;;;
2023/09/23 02:53:22;;;;;;;1.52;1.23;;;;;;;21.82;50.92;92901.25;5987209;23;20442;-93
2023/09/23 03:08:47;;;;;;;2.38;1.40;;;;;;;21.80;51.36;92909.31;6095323;23;20023;-94
2023/09/23 03:11:55;;;;;;;2.20;1.40;;;;;;;21.80;51.34;92917.56;6051378;23;20026;-94
2023/09/23 03:15:33;;;;;;;;;;;;;;;;;;;;;
2023/09/23 03:19:11;;;;;;;1.33;1.10;;;;;;;21.82;51.08;92920.50;6052418;23;20353;-93
2023/09/23 03:25:20;;;;;;;1.50;1.30;;;;;;;21.78;51.25;92931.84;5841285;24;20025;-94
2023/09/23 03:28:20;;;;;;;1.20;1.10;;;;;;;21.78;51.17;92939.38;5833060;24;20056;-94
2023/09/23 03:34:14;;;;;;;1.52;1.30;;;;;;;21.77;51.52;92940.66;6092699;23;20036;-93
2023/09/23 03:54:39;;;;;;;1.60;1.27;;;;;;;21.79;51.05;92958.09;6094264;23;20026;-94
2023/09/23 04:03:19;;;;;;;;;;;;;;;;;;;;;
2023/09/23 04:27:32;;;;;;;;;;;;;;;;;;;;;
2023/09/23 04:30:45;;;;;;;;;;;;;;;;;;;;;
2023/09/23 04:34:07;;;;;;;1.42;1.27;;;;;;;21.74;51.16;92952.75;5899757;24;20629;-94
2023/09/23 04:45:18;;;;;;;;;;;;;;;;;;;;;
2023/09/23 04:48:45;;;;;;;;;;;;;;;;;;;;;
2023/09/23 05:03:24;;;;;;;1.27;0.90;;;;;;;21.74;51.00;92972.75;6115927;23;20018;-94
2023/09/23 05:15:47;;;;;;;;;;;;;;;;;;;;;
2023/09/23 05:21:45;;;;;;;;;;;;;;;;;;;;;
2023/09/23 05:28:34;;;;;;;;;;;;;;;;;;;;;
2023/09/23 05:36:55;;;;;;;;;;;;;;;;;;;;;
2023/09/23 05:43:49;;;;;;;1.30;1.20;;;;;;;21.74;51.13;93062.78;5861687;24;20021;-93
2023/09/23 05:55:47;;;;;;;1.30;1.10;;;;;;;21.78;50.97;93065.94;5904497;24;20085;-93
2023/09/23 05:58:41;;;;;;;1.40;1.17;;;;;;;21.73;50.81;93086.06;5919531;24;20064;-93
2023/09/23 06:01:43;;;;;;;1.75;1.48;;;;;;;21.74;50.99;93093.78;5899292;24;20025;-94
2023/09/23 06:12:28;;;;;;;;;;;;;;;;;;;;;
2023/09/23 06:15:55;;;;;;;1.45;1.15;;;;;;;21.73;51.09;93132.84;5962939;23;20196;-94
2023/09/23 06:19:05;;;;;;;1.27;1.17;;;;;;;21.75;50.94;93147.53;6034740;23;20018;-93
2023/09/23 06:22:35;;;;;;;;;;;;;;;;;;;;;
2023/09/23 06:28:35;;;;;;;1.70;1.25;;;;;;;21.72;50.88;93139.63;6130115;23;20018;-94
2023/09/23 06:35:25;;;;;;;;;;;;;;;;;;;;;
2023/09/23 06:42:15;;;;;;;1.40;1.10;;;;;;;21.70;51.08;93156.66;5770281;24;20061;-93
2023/09/23 06:45:25;;;;;;;;;;;;;;;;;;;;;
2023/09/23 06:48:36;;;;;;;;;;;;;;;;;;;;;
2023/09/23 06:54:51;;;;;;;1.48;1.20;;;;;;;21.70;50.95;93159.44;5643423;25;20025;-93
2023/09/23 07:01:40;;;;;;;;;;;;;;;;;;;;;
2023/09/23 07:04:41;;;;;;;1.48;1.27;;;;;;;21.71;51.01;93176.66;5577353;24;20351;-93
2023/09/23 07:13:30;;;;;;;;;;;;;;;;;;;;;
2023/09/23 07:16:23;;;;;;;1.55;1.17;;;;;;;21.71;50.86;93174.66;6095725;23;20370;-94
2023/09/23 07:19:27;;;;;;;1.08;0.88;;;;;;;21.72;50.88;93178.88;6111718;23;20473;-93
2023/09/23 07:26:34;;;;;;;;;;;;;;;;;;;;;
2023/09/23 07:32:56;;;;;;;1.65;1.27;;;;;;;21.73;50.95;93198.88;6011333;23;20104;-94
2023/09/23 07:49:01;;;;;;;1.63;1.20;;;;;;;21.72;51.20;93233.16;6105128;23;20022;-94
2023/09/23 08:06:25;;;;;;;;;;;;;;;;;;;;;
2023/09/23 08:12:48;;;;;;;1.35;1.05;;;;;;;21.72;50.79;93277.94;5909984;24;20086;-94
2023/09/23 08:15:58;;;;;;;1.88;1.10;;;;;;;21.73;51.08;93281.41;5871361;24;20045;-94
2023/09/23 08:22:26;;;;;;;;;;;;;;;;;;;;;
2023/09/23 08:28:46;;;;;;;1.60;1.10;;;;;;;21.71;50.99;93289.47;6014391;23;20034;-94
2023/09/23 08:39:05;;;;;;;1.02;0.90;;;;;;;21.71;50.99;93290.22;5765825;24;20028;-94
2023/09/23 08:42:32;;;;;;;;;;;;;;;;;;;;;
2023/09/23 08:51:27;;;;;;;1.50;1.40;;;;;;;21.62;49.74;93298.19;6084316;23;20026;-95
2023/09/23 08:54:41;;;;;;;6.20;2.65;;;;;;;21.53;49.62;93288.38;6057825;23;20026;-94
2023/09/23 08:58:04;;;;;;;;;;;;;;;;;;;;;
2023/09/23 09:01:27;;;;;;;;;;;;;;;;;;;;;
2023/09/23 09:07:31;;;;;;;;;;;;;;;;;;;;;
2023/09/23 09:10:29;;;;;;;3.22;2.42;;;;;;;21.55;49.60;93305.84;6056647;23;20175;-94
2023/09/23 09:17:16;;;;;;;2.70;2.13;;;;;;;21.60;49.62;93309.75;5790128;24;20551;-94
2023/09/23 09:20:41;;;;;;;2.45;2.05;;;;;;;21.61;49.78;93315.97;5750403;24;20019;-94
2023/09/23 09:23:48;;;;;;;3.75;1.60;;;;;;;21.62;49.76;93312.69;5971812;23;20058;-95
2023/09/23 09:26:51;;;;;;;1.80;1.45;;;;;;;21.62;49.87;93329.19;6021492;23;20022;-95
2023/09/23 09:29:59;;;;;;;;;;;;;;;;;;;;;
2023/09/23 09:33:46;;;;;;;;;;;;;;;;;;;;;
2023/09/23 09:36:46;;;;;;;2.00;1.33;;;;;;;21.63;50.14;93338.19;5962942;23;20717;-95
2023/09/23 09:48:32;;;;;;;;;;;;;;;;;;;;;
2023/09/23 09:51:49;;;;;;;;;;;;;;;;;;;;;
2023/09/23 09:55:01;;;;;;;;;;;;;;;;;;;;;
2023/09/23 09:58:39;;;;;;;1.30;1.20;;;;;;;21.66;50.29;93337.09;5887842;24;20026;-94
2023/09/23 10:04:26;;;;;;;1.88;1.27;;;;;;;21.65;50.39;93341.88;6112960;23;20023;-94
2023/09/23 10:07:51;;;;;;;1.08;0.98;;;;;;;21.65;50.46;93341.16;6092579;23;20033;-94
2023/09/23 10:14:50;;;;;;;;;;;;;;;;;;;;;
2023/09/23 10:17:53;;;;;;;1.15;0.95;;;;;;;21.67;50.42;93342.06;5823528;24;20060;-94
2023/09/23 10:24:44;;;;;;;2.40;1.17;;;;;;;21.67;50.32;93330.31;5981756;23;20020;-93
2023/09/23 10:27:50;;;;;;;1.25;0.93;;;;;;;21.68;50.42;93343.56;5870360;24;20508;-94
2023/09/23 10:31:03;;;;;;;1.45;1.05;;;;;;;21.67;50.74;93346.84;5794179;24;20614;-94
2023/09/23 10:37:06;;;;;;;1.55;1.25;;;;;;;21.66;50.61;93337.84;6033975;23;20030;-94
2023/09/23 10:40:31;;;;;;;;;;;;;;;;;;;;;
2023/09/23 10:43:40;;;;;;;1.15;1.02;;;;;;;21.69;50.46;93356.03;5873750;23;20033;-94
2023/09/23 10:52:04;;;;;;;;;;;;;;;;;;;;;
2023/09/23 10:57:37;;;;;;;1.10;1.00;;;;;;;21.72;50.45;93354.97;6130471;23;20025;-94
2023/09/23 11:00:33;;;;;;;1.00;0.90;;;;;;;21.70;50.47;93343.03;5991953;23;20026;-94
2023/09/23 11:03:27;;;;;;;1.15;0.90;;;;;;;21.73;50.46;93345.44;5976500;23;20027;-95
2023/09/23 11:06:32;;;;;;;;;;;;;;;;;;;;;
2023/09/23 11:09:36;;;;;;;1.48;1.17;;;;;;;21.75;50.44;93353.91;5960404;23;20407;-94
2023/09/23 11:19:05;;;;;;;1.50;1.00;;;;;;;21.75;50.21;93348.41;5827949;24;20153;-94
2023/09/23 11:22:07;;;;;;;;;;;;;;;;;;;;;
2023/09/23 11:25:24;;;;;;;1.08;0.90;;;;;;;21.78;50.18;93352.09;6100520;23;20536;-94
2023/09/23 11:46:44;;;;;;;1.30;0.90;;;;;;;21.77;49.71;93362.38;6018388;23;20075;-94
2023/09/23 11:50:16;;;;;;;;;;;;;;;;;;;;;
2023/09/23 11:53:39;;;;;;;;;;;;;;;;;;;;;
2023/09/23 11:56:52;;;;;;;2.85;0.95;;;;;;;21.71;48.71;93361.00;5873722;24;20324;-93
2023/09/23 11:59:40;;;;;;;2.03;1.52;;;;;;;21.74;48.19;93365.44;5743982;24;20023;-94
2023/09/23 12:10:34;;;;;;;;;;;;;;;;;;;;;
2023/09/23 12:13:25;;;;;;;1.63;1.23;;;;;;;21.78;48.58;93374.84;6050022;23;20037;-93
2023/09/23 12:16:42;;;;;;;;;;;;;;;;;;;;;
2023/09/23 12:20:04;;;;;;;1.40;1.20;;;;;;;21.79;49.13;93394.84;5868040;23;20581;-94
2023/09/23 12:23:39;;;;;;;;;;;;;;;;;;;;;
2023/09/23 12:32:18;;;;;;;1.48;0.98;;;;;;;21.79;49.46;93389.34;6082565;23;20010;-94
2023/09/23 12:35:00;;;;;;;1.85;1.00;;;;;;;21.79;49.64;93381.09;6059153;23;20026;-94
2023/09/23 12:50:07;;;;;;;;;;;;;;;;;;;;;
2023/09/23 12:59:18;;;;;;;1.05;0.73;;;;;;;21.80;50.07;93416.34;5962937;23;20075;-94
2023/09/23 13:01:45;;;;;;;0.93;0.82;;;;;;;21.82;49.70;93411.03;6013767;23;20023;-94
2023/09/23 13:04:46;;;;;;;0.80;0.80;;;;;;;21.83;49.80;93414.53;5906993;23;20020;-94
2023/09/23 13:08:23;;;;;;;;;;;;;;;;;;;;;
2023/09/23 13:11:19;;;;;;;1.20;0.95;;;;;;;21.82;49.67;93413.06;5767503;24;20046;-94
2023/09/23 13:22:37;;;;;;;1.00;0.90;;;;;;;21.81;49.90;93425.34;6041409;23;20033;-93
2023/09/23 13:25:48;;;;;;;1.02;0.85;;;;;;;21.84;49.73;93424.28;5979464;23;20453;-93
2023/09/23 13:33:55;;;;;;;1.00;0.90;;;;;;;21.82;49.85;93421.31;6139884;23;20049;-94
2023/09/23 13:37:02;;;;;;;1.92;0.80;;;;;;;21.84;49.79;93429.78;5935688;23;20027;-94
2023/09/23 13:46:41;;;;;;;1.10;0.80;;;;;;;21.82;49.78;93419.31;5755363;24;20033;-93
2023/09/23 13:49:45;;;;;;;1.15;0.90;;;;;;;21.83;49.65;93425.53;5770072;24;20003;-94
2023/09/23 13:52:53;;;;;;;0.70;0.70;;;;;;;21.84;50.28;93427.03;5774147;24;20046;-94
2023/09/23 14:01:53;;;;;;;0.80;0.80;;;;;;;21.83;50.11;93429.03;6148438;23;20184;-94
2023/09/23 14:05:03;;;;;;;1.15;0.90;;;;;;;21.83;49.98;93420.78;5985165;23;20045;-95
2023/09/23 14:16:12;;;;;;;1.20;0.90;;;;;;;21.85;50.10;93429.25;6081016;23;20387;-93
2023/09/23 14:19:20;;;;;;;;;;;;;;;;;;;;;
2023/09/23 14:22:15;;;;;;;0.90;0.80;;;;;;;21.87;49.96;93451.44;6014366;23;20868;-95
2023/09/23 14:25:23;;;;;;;;;;;;;;;;;;;;;
2023/09/23 14:28:20;;;;;;;1.25;0.90;;;;;;;21.89;50.04;93453.66;5886996;24;20417;-94
2023/09/23 14:31:19;;;;;;;0.90;0.70;;;;;;;21.88;50.04;93457.69;5991297;23;20041;-94
2023/09/23 14:34:27;;;;;;;0.93;0.80;;;;;;;21.89;50.16;93464.69;5980187;23;20024;-94
2023/09/23 14:37:48;;;;;;;;;;;;;;;;;;;;;
2023/09/23 14:40:36;;;;;;;1.05;0.90;;;;;;;21.88;50.04;93468.69;5889812;23;20047;-94
2023/09/23 14:43:48;;;;;;;1.13;0.80;;;;;;;21.87;49.81;93464.47;5897329;23;20414;-94
2023/09/23 14:47:24;;;;;;;1.33;0.90;;;;;;;21.88;49.99;93469.44;5976193;23;20030;-94
2023/09/23 14:53:10;;;;;;;0.70;0.50;;;;;;;21.88;50.00;93482.47;6163258;23;20725;-93
2023/09/23 14:56:07;;;;;;;1.13;0.85;;;;;;;21.87;49.84;93486.47;6076593;23;20034;-93
2023/09/23 14:59:03;;;;;;;0.80;0.70;;;;;;;21.86;50.11;93487.78;6006994;23;20077;-95
2023/09/23 15:01:52;;;;;;;1.10;0.77;;;;;;;21.89;49.81;93483.94;5995475;23;20062;-94
2023/09/23 15:04:53;;;;;;;0.90;0.65;;;;;;;21.87;50.01;93500.25;6082201;23;20026;-94
2023/09/23 15:08:02;;;;;;;2.97;1.23;;;;;;;21.86;49.94;93498.78;6026744;23;20025;-94
2023/09/23 15:10:57;;;;;;;0.70;0.60;;;;;;;21.91;49.98;93500.66;6116805;23;20405;-94
2023/09/23 15:13:37;;;;;;;1.23;0.90;;;;;;;21.88;49.90;93502.47;6055625;23;20368;-93
2023/09/23 15:17:13;;;;;;;;;;;;;;;;;;;;;
2023/09/23 15:20:07;;;;;;;;;;;;;;;;;;;;;
2023/09/23 15:25:55;;;;;;;;;;;;;;;;;;;;;
2023/09/23 15:28:48;;;;;;;0.98;0.85;;;;;;;21.91;49.51;93506.16;5975453;23;20057;-94
2023/09/23 15:31:51;;;;;;;1.90;1.05;;;;;;;21.88;49.85;93518.97;5982427;23;20418;-94
2023/09/23 15:35:05;;;;;;;0.80;0.65;;;;;;;21.89;49.78;93509.47;6005434;23;20023;-93
2023/09/23 15:37:59;;;;;;;0.85;0.60;;;;;;;21.92;49.71;93512.41;6086795;23;20073;-94
2023/09/23 15:41:05;;;;;;;0.80;0.52;;;;;;;21.88;49.72;93516.22;6029711;23;20020;-94
2023/09/23 15:43:48;;;;;;;1.25;0.80;;;;;;;21.86;49.75;93516.03;5967337;23;20019;-94
2023/09/23 15:46:30;;;;;;;0.82;0.70;;;;;;;21.89;49.40;93522.47;5987671;23;20015;-94
2023/09/23 15:49:27;;;;;;;;;;;;;;;;;;;;;
2023/09/23 15:52:15;;;;;;;0.70;0.60;;;;;;;21.86;49.82;93523.56;5883084;23;20431;-94
2023/09/23 15:55:08;;;;;;;2.33;0.75;;;;;;;21.86;49.69;93534.56;6049459;23;20022;-93
2023/09/23 15:58:12;;;;;;;;;;;;;;;;;;;;;
2023/09/23 16:00:43;;;;;;;1.48;0.80;;;;;;;21.84;49.70;93521.34;5908012;23;20247;-95
2023/09/23 16:03:38;;;;;;;0.77;0.70;;;;;;;21.85;49.95;93524.84;5866261;23;20167;-94
2023/09/23 16:06:36;;;;;;;1.13;0.75;;;;;;;21.86;49.89;93523.56;6026319;22;20096;-94
2023/09/23 16:09:35;;;;;;;1.73;0.75;;;;;;;21.84;49.81;93512.34;5984868;23;20024;-94
2023/09/23 16:15:36;;;;;;;1.08;0.65;;;;;;;21.84;49.82;93518.59;6140023;23;20535;-94
2023/09/23 16:18:47;;;;;;;2.00;0.88;;;;;;;21.85;49.79;93522.06;6043884;23;20123;-94
2023/09/23 16:21:35;;;;;;;1.73;0.75;;;;;;;21.85;49.60;93522.06;6116249;23;20387;-94
2023/09/23 16:24:28;;;;;;;0.88;0.73;;;;;;;21.85;49.81;93535.84;6138439;23;20013;-94
2023/09/23 16:27:31;;;;;;;1.35;0.95;;;;;;;21.84;49.96;93529.59;6027590;23;20112;-94
2023/09/23 16:30:32;;;;;;;1.05;0.75;;;;;;;21.84;49.68;93524.09;5943123;24;20103;-93
2023/09/23 16:33:31;;;;;;;1.08;0.80;;;;;;;21.83;49.63;93536.38;5909630;24;20052;-94
2023/09/23 16:36:46;;;;;;;1.52;0.73;;;;;;;21.83;50.02;93543.88;5947316;23;20556;-94
2023/09/23 16:42:31;;;;;;;0.77;0.60;;;;;;;21.83;49.70;93554.88;6133236;23;20013;-94
2023/09/23 16:45:37;;;;;;;;;;;;;;;;;;;;;
2023/09/23 16:50:52;;;;;;;1.05;0.85;;;;;;;21.80;49.89;93564.94;6169224;22;20027;-94
2023/09/23 16:57:10;;;;;;;1.27;0.85;;;;;;;21.80;49.50;93589.72;5984015;23;20027;-95
2023/09/23 17:00:16;;;;;;;1.30;0.70;;;;;;;21.82;49.62;93594.69;5927578;23;20028;-94
2023/09/23 17:03:28;;;;;;;0.77;0.50;;;;;;;21.80;49.90;93606.22;5860491;24;20025;-94
2023/09/23 17:06:27;;;;;;;1.67;0.85;;;;;;;21.79;49.76;93609.50;5898238;24;20020;-94
2023/09/23 17:12:27;;;;;;;1.20;0.73;;;;;;;21.83;49.69;93620.94;5988604;23;20051;-94
2023/09/23 17:15:29;;;;;;;0.93;0.53;;;;;;;21.82;49.82;93627.72;6060939;23;20034;-93
2023/09/23 17:18:32;;;;;;;1.40;0.80;;;;;;;21.82;49.78;93613.94;6027366;23;20023;-94
2023/09/23 17:24:20;;;;;;;0.88;0.63;;;;;;;21.80;49.82;93638.50;6058353;23;20023;-94
2023/09/23 17:27:34;;;;;;;;;;;;;;;;;;;;;
2023/09/23 17:30:31;;;;;;;1.23;0.80;;;;;;;21.80;49.84;93644.00;5960595;23;20419;-94
2023/09/23 17:33:33;;;;;;;1.73;0.80;;;;;;;21.78;49.74;93660.31;6012636;23;20021;-94
2023/09/23 17:36:26;;;;;;;0.90;0.68;;;;;;;21.79;49.73;93661.78;5917867;23;20027;-94
2023/09/23 17:39:56;;;;;;;;;;;;;;;;;;;;;
2023/09/23 17:45:40;;;;;;;0.75;0.60;;;;;;;21.81;49.62;93673.75;6107592;23;20386;-94
2023/09/23 17:53:54;;;;;;;;;;;;;;;;;;;;;
2023/09/23 17:56:30;;;;;;;0.65;0.55;;;;;;;21.79;49.67;93692.81;5932487;23;20040;-94
2023/09/23 17:59:16;;;;;;;1.20;0.63;;;;;;;21.77;49.84;93700.09;6068730;23;20065;-93
2023/09/23 18:02:10;;;;;;;0.93;0.52;;;;;;;21.78;49.78;93699.56;5990703;23;20032;-93
2023/09/23 18:05:29;;;;;;;1.90;0.60;;;;;;;21.77;49.83;93706.34;5960600;23;20021;-94
2023/09/23 18:08:38;;;;;;;;;;;;;;;;;;;;;
2023/09/23 18:11:53;;;;;;;;;;;;;;;;;;;;;
2023/09/23 18:14:44;;;;;;;0.50;0.50;;;;;;;21.77;49.85;93722.09;5837441;24;20498;-93
2023/09/23 18:17:45;;;;;;;1.27;0.80;;;;;;;21.72;49.99;93720.19;5865809;24;20174;-92
2023/09/23 18:20:40;;;;;;;0.82;0.60;;;;;;;21.73;49.89;93727.91;5874117;24;20031;-93
2023/09/23 18:23:38;;;;;;;;;;;;;;;;;;;;;
2023/09/23 18:26:29;;;;;;;;;;;;;;;;;;;;;
2023/09/23 18:29:46;;;;;;;;;;;;;;;;;;;;;
2023/09/23 18:32:31;;;;;;;0.70;0.60;;;;;;;21.74;50.06;93739.66;6028594;23;20239;-93
2023/09/23 18:37:58;;;;;;;1.60;0.60;;;;;;;21.73;49.89;93746.44;6111921;23;20033;-94
2023/09/23 18:41:22;;;;;;;1.50;0.60;;;;;;;21.72;49.91;93747.69;6022666;23;20059;-93
2023/09/23 18:49:31;;;;;;;0.52;0.50;;;;;;;21.75;49.79;93752.91;6086670;23;20025;-94
2023/09/23 18:52:24;;;;;;;0.93;0.70;;;;;;;21.74;49.75;93748.66;6038636;23;20054;-93
2023/09/23 18:55:29;;;;;;;1.30;0.93;;;;;;;21.71;50.09;93749.72;5930709;24;20052;-93
2023/09/23 19:07:13;;;;;;;1.05;0.60;;;;;;;21.70;49.92;93761.25;6102010;23;20144;-93
2023/09/23 19:13:06;;;;;;;0.77;0.55;;;;;;;21.70;50.00;93759.22;5961111;23;20032;-94
2023/09/23 19:15:52;;;;;;;1.73;0.68;;;;;;;21.69;49.96;93763.25;5788527;24;20026;-94
2023/09/23 19:18:38;;;;;;;0.80;0.60;;;;;;;21.72;49.79;93769.72;5697610;24;20538;-94
2023/09/23 19:22:01;;;;;;;1.48;0.80;;;;;;;21.70;49.98;93767.47;5804733;24;20479;-93
2023/09/23 19:28:25;;;;;;;0.80;0.68;;;;;;;21.69;49.88;93774.25;5781170;24;20067;-93
2023/09/23 19:31:36;;;;;;;1.20;0.77;;;;;;;21.67;49.92;93762.28;5732649;24;20008;-93
2023/09/23 19:34:42;;;;;;;0.75;0.70;;;;;;;21.67;50.03;93773.28;5723010;24;20362;-93
2023/09/23 19:37:13;;;;;;;0.75;0.60;;;;;;;21.68;49.70;93775.53;5715175;24;20021;-93
2023/09/23 19:40:05;;;;;;;;;;;;;;;21.69;49.77;93773.50;5656120;25;20043;-94
2023/09/23 19:43:03;;;;;;;1.25;0.63;;;;;;;21.66;50.16;93774.56;5781096;24;19994;-92
2023/09/23 19:46:04;;;;;;;0.93;0.68;;;;;;;21.68;50.00;93777.53;5822815;24;20026;-94
2023/09/23 19:54:24;;;;;;;0.80;0.68;;;;;;;21.65;49.85;93786.84;6079322;23;20488;31
2023/09/23 20:00:02;;;;;;;1.08;0.80;;;;;;;21.68;50.10;93788.53;6133209;23;20030;-93
2023/09/23 20:03:05;;;;;;;1.52;0.60;;;;;;;21.68;50.03;93796.78;6129135;23;20021;-94
2023/09/23 20:06:09;;;;;;;1.17;0.80;;;;;;;21.64;49.87;93797.13;6099955;23;20014;-93
2023/09/23 20:11:30;;;;;;;0.70;0.70;;;;;;;21.66;49.98;93802.06;6123669;23;20485;-94
2023/09/23 20:14:11;;;;;;;1.02;0.60;;;;;;;21.66;49.91;93805.56;6061112;23;20025;-93
2023/09/23 20:17:48;;;;;;;0.82;0.75;;;;;;;21.65;50.06;93795.81;6105675;23;20018;-94
2023/09/23 20:20:47;;;;;;;0.70;0.60;;;;;;;21.67;49.86;93803.56;6007260;23;20473;-93
2023/09/23 20:24:00;;;;;;;1.05;0.60;;;;;;;21.66;49.96;93807.56;6039647;23;20023;-93
2023/09/23 20:32:03;;;;;;;2.30;0.98;;;;;;;21.64;50.00;93818.38;6117789;23;20029;-93
2023/09/23 20:34:51;;;;;;;0.98;0.80;;;;;;;21.68;49.85;93836.06;6073191;23;21004;-92
2023/09/23 20:38:01;;;;;;;0.70;0.55;;;;;;;21.66;50.03;93837.84;6033396;23;20048;-92
2023/09/23 20:40:41;;;;;;;1.00;0.60;;;;;;;21.64;49.82;93837.63;6031998;22;20021;-93
2023/09/23 20:46:32;;;;;;;0.90;0.60;;;;;;;21.63;50.20;93847.16;6036211;23;20067;-94
2023/09/23 20:49:24;;;;;;;0.68;0.60;;;;;;;21.65;50.14;93850.13;6076658;23;20018;-92
2023/09/23 20:55:43;;;;;;;1.20;0.90;;;;;;;21.63;50.19;93860.91;5996398;23;20026;-92
2023/09/23 20:58:24;;;;;;;0.68;0.52;;;;;;;21.63;50.15;93860.91;6139355;23;20031;-93
2023/09/23 21:11:24;;;;;;;0.80;0.70;;;;;;;21.59;50.15;93872.22;6064916;23;20032;-93
2023/09/23 21:14:34;;;;;;;1.60;0.75;;;;;;;21.56;50.26;93873.25;6060022;23;20069;-93
2023/09/23 21:17:40;;;;;;;1.10;0.63;;;;;;;21.60;50.30;93881.94;6033697;23;20074;-93
2023/09/23 21:20:37;;;;;;;0.73;0.52;;;;;;;21.59;50.24;93882.47;5930463;23;20022;-93
2023/09/23 21:23:39;;;;;;;;;;;;;;;;;;;;;
2023/09/23 21:26:40;;;;;;;1.13;0.60;;;;;;;21.59;50.04;93880.47;5906327;24;20358;-93
2023/09/23 21:29:45;;;;;;;;;;;;;;;;;;;;;
2023/09/23 21:32:56;;;;;;;;;;;;;;;;;;;;;
2023/09/23 21:35:23;;;;;;;0.93;0.70;;;;;;;21.58;49.92;93870.72;5787682;24;20037;-93
2023/09/23 21:38:03;;;;;;;1.30;0.80;;;;;;;21.55;50.03;93863.50;5832268;24;20413;-93
2023/09/23 21:41:26;;;;;;;0.77;0.68;;;;;;;21.56;50.07;93870.50;5865459;24;20544;-94
2023/09/23 21:44:26;;;;;;;1.13;0.63;;;;;;;21.58;50.04;93865.22;5905295;24;20025;-92
2023/09/23 21:47:03;;;;;;;1.38;0.70;;;;;;;21.53;50.01;93874.28;5812322;24;20017;-93
2023/09/23 21:50:00;;;;;;;;;;;;;;;;;;;;;
2023/09/23 21:53:11;;;;;;;1.50;0.75;;;;;;;21.53;50.07;93877.78;5887425;24;20026;-93
2023/09/23 21:59:14;;;;;;;0.70;0.57;;;;;;;21.54;50.05;93873.03;5889739;24;20060;-93
2023/09/23 22:01:49;;;;;;;1.23;0.50;;;;;;;21.52;50.32;93883.81;5902097;24;20045;-93
2023/09/23 22:13:28;;;;;;;0.75;0.50;;;;;;;21.55;49.80;93888.25;6078399;23;20026;-93
2023/09/23 22:16:26;;;;;;;0.98;0.77;;;;;;;21.54;49.93;93893.03;6034864;23;20042;-93
2023/09/23 22:19:25;;;;;;;2.00;0.65;;;;;;;21.54;49.92;93889.53;6057228;23;20014;-93
2023/09/23 22:22:01;;;;;;;1.95;0.60;;;;;;;21.56;49.97;93870.50;6018438;23;20030;-93
2023/09/23 22:25:21;;;;;;;;;;;;;;;;;;;;;
2023/09/23 22:28:11;;;;;;;1.00;0.70;;;;;;;21.52;50.17;93870.78;6030128;23;20332;-94
2023/09/23 22:30:59;;;;;;;1.02;0.43;;;;;;;21.54;49.89;93876.53;5966213;23;20056;-93
2023/09/23 22:37:10;;;;;;;1.08;0.60;;;;;;;21.51;50.15;93861.03;5946801;24;20021;-93
2023/09/23 22:39:54;;;;;;;1.73;0.70;;;;;;;21.51;49.89;93863.81;5847033;24;20061;-93
2023/09/23 22:42:35;;;;;;;1.80;0.80;;;;;;;21.54;49.72;93864.78;5879527;23;20027;-93
2023/09/23 22:45:42;;;;;;;1.85;0.80;;;;;;;21.51;49.87;93865.81;5919962;24;20020;-93
2023/09/23 22:48:58;;;;;;;0.85;0.50;;;;;;;21.52;49.71;93870.03;5900062;23;20088;-94
2023/09/23 22:51:38;;;;;;;1.63;0.73;;;;;;;21.52;49.82;93865.28;5908320;24;20029;-93
2023/09/23 22:54:55;;;;;;;0.70;0.50;;;;;;;21.53;49.83;93874.28;5919720;24;20441;-93
2023/09/23 22:57:54;;;;;;;1.25;0.70;;;;;;;21.50;50.03;93861.56;5833837;24;20153;-92
2023/09/23 23:01:05;;;;;;;1.77;0.77;;;;;;;21.49;50.02;93860.06;5807130;24;20029;-93
2023/09/23 23:03:50;;;;;;;1.10;0.80;;;;;;;21.48;49.47;93867.59;5830042;24;20402;-93
2023/09/23 23:07:02;;;;;;;1.23;0.50;;;;;;;21.47;49.92;93866.09;5788800;24;20022;-94
2023/09/23 23:09:53;;;;;;;1.23;0.85;;;;;;;21.50;49.82;93864.31;5781540;24;20023;-94
2023/09/23 23:15:54;;;;;;;0.90;0.70;;;;;;;21.46;50.10;93861.84;5796828;24;20075;-92
2023/09/23 23:19:17;;;;;;;1.60;0.90;;;;;;;21.46;50.09;93869.38;5814297;24;20546;-94
2023/09/23 23:22:22;;;;;;;0.85;0.60;;;;;;;21.43;50.21;93865.66;5731023;24;20446;-93
2023/09/23 23:25:41;;;;;;;1.02;0.65;;;;;;;21.42;50.12;93877.19;5737915;24;20052;-92
2023/09/23 23:28:57;;;;;;;;;;;;;;;;;;;;;
2023/09/23 23:31:35;;;;;;;1.48;0.70;;;;;;;21.42;50.24;93871.69;5986990;23;20028;-93
2023/09/23 23:34:57;;;;;;;1.30;0.90;;;;;;;21.43;50.43;93878.69;6071206;23;20025;-93
2023/09/23 23:38:01;;;;;;;0.65;0.45;;;;;;;21.41;50.49;93881.22;6080866;23;20116;-93
2023/09/23 23:46:37;;;;;;;0.90;0.60;;;;;;;21.43;50.08;93897.94;6045241;23;20045;-93
2023/09/23 23:49:34;;;;;;;0.85;0.50;;;;;;;21.43;49.99;93892.44;5968503;23;20017;-92
2023/09/23 23:52:55;;;;;;;;;;;;;;;;;;;;;
2023/09/23 23:55:39;;;;;;;0.95;0.60;;;;;;;21.42;49.81;93893.69;6015639;23;20030;-93
